Share

Veracruz, Mexico

Gen Heriberto Jara International (MMVR) Elev 95 ft | 19.15 °N, 96.19 °W | Change Station

Current weather conditions updated 59 minutes ago

Mostly Cloudy
Mostly Cloudy
73 °F
Feels Like 73 °F
N
5
Wind Variable Wind from North
Sunrise 7:04 AM
Sunset 7:42 PM
Moon Waning Gibbous

Today is forecast to be nearly the same temperature as yesterday. Rain and thunder tonight.

Pressure 29.98 in
Visibility 5.0 miles
Clouds Scattered Clouds 1500 ft
Mostly Cloudy 7000 ft
Dew Point 70 °F
Humidity 88%
Rainfall 0.00 in
Snow Depth Not available.
UV 0 out of 16
Pollen Not available.
Air Quality Not available.
Flu Activity Not available.
METAR MMVR 181243Z 35004KT 5SM SCT015 BKN070 23/21 A2998 RMK 8/570 HZY ISOL CI

More Conditions Fewer Conditions

Pressure 29.98 in
Visibility 5.0 miles
Clouds Scattered Clouds 1500 ft
Mostly Cloudy 7000 ft
Dew Point 70 °F
Humidity 88%
Rainfall 0.00 in
Snow Depth Not available.
UV 0 out of 16
Pollen Not available.
Air Quality Not available.
Flu Activity Not available.
METAR MMVR 181243Z 35004KT 5SM SCT015 BKN070 23/21 A2998 RMK 8/570 HZY ISOL CI

More Conditions Fewer Conditions

10-Day Forecast

Almanac

Astronomy

Apr. 18, 2014 Rise Set
Actual Time 7:04 AM CDT 7:42 PM CDT
Civil Twilight 6:42 AM CDT 8:05 PM CDT
Nautical Twilight 6:16 AM CDT 8:31 PM CDT
Astronomical Twilight 5:49 AM CDT 8:58 PM CDT
Moon 11:11 PM CDT 9:45 AM CDT
Length of Visible Light 13h 22m
Length of Day
12h 38m
Tomorrow will be 1m 0s longer.
Waning Gibbous, 88% of the Moon is Illuminated
Today
Waning Gibbous
Apr 22
Last Quarter
Apr 29
New
May 6
First Quarter
May 14
Full

Yesterday's Extremes

Country Highs Country Lows

Community

  • What's for Lunch?
    What's for Lunch?
  • SUNRISE THROUGH THE TREES.
    SUNRISE THROUGH THE TREES.
  • Dog Wood Blossoms
    Dog Wood Blossoms
  • Morning Light
    Morning Light
  • New Day
    New Day

WunderPhotos

Upload Photos

1,702,371 photos uploaded!

Nearby

Snow Depth

Not available.

Coastal Water Temperatures

Place Temperature
No Stations Reporting

Earthquake Activity

City Distance Mag. Time & Date
No recent earthquake activity has been reported nearby.
Minimum magnitude displayed is 2.5.

Nearby Weather Stations

There are no personal weather stations in this area.

What do you think?

We're not finished. Please let us know what you like, what you don't like, and what you are still missing.